sensor_id;sensor_type;location;lat;lon;timestamp;temperature;humidity
23143;DHT22;11740;51.168;4.112;2023-09-19T00:01:00;15.10;47.60
23143;DHT22;11740;51.168;4.112;2023-09-19T00:03:27;15.10;47.60
23143;DHT22;11740;51.168;4.112;2023-09-19T00:05:55;15.10;43.30
23143;DHT22;11740;51.168;4.112;2023-09-19T00:08:24;15.10;1.00
23143;DHT22;11740;51.168;4.112;2023-09-19T00:10:51;15.00;33.40
23143;DHT22;11740;51.168;4.112;2023-09-19T00:13:21;15.00;88.00
23143;DHT22;11740;51.168;4.112;2023-09-19T00:15:48;14.90;77.60
23143;DHT22;11740;51.168;4.112;2023-09-19T00:18:18;15.00;99.90
23143;DHT22;11740;51.168;4.112;2023-09-19T00:20:47;14.90;99.90
23143;DHT22;11740;51.168;4.112;2023-09-19T00:23:18;14.90;84.40
23143;DHT22;11740;51.168;4.112;2023-09-19T00:25:46;14.90;72.80
23143;DHT22;11740;51.168;4.112;2023-09-19T00:28:13;14.90;13.50
23143;DHT22;11740;51.168;4.112;2023-09-19T00:30:43;14.80;1.00
23143;DHT22;11740;51.168;4.112;2023-09-19T00:33:12;14.80;1.00
23143;DHT22;11740;51.168;4.112;2023-09-19T00:35:50;14.80;1.00
23143;DHT22;11740;51.168;4.112;2023-09-19T00:38:19;14.80;1.00
23143;DHT22;11740;51.168;4.112;2023-09-19T00:40:49;14.70;1.00
23143;DHT22;11740;51.168;4.112;2023-09-19T00:43:17;14.70;1.00
23143;DHT22;11740;51.168;4.112;2023-09-19T00:45:48;14.70;1.00
23143;DHT22;11740;51.168;4.112;2023-09-19T00:48:19;14.60;1.00
23143;DHT22;11740;51.168;4.112;2023-09-19T00:50:49;14.60;1.00
23143;DHT22;11740;51.168;4.112;2023-09-19T00:53:19;14.60;1.00
23143;DHT22;11740;51.168;4.112;2023-09-19T00:55:48;14.60;1.00
23143;DHT22;11740;51.168;4.112;2023-09-19T00:58:17;14.50;1.00
23143;DHT22;11740;51.168;4.112;2023-09-19T01:00:46;14.50;1.00
23143;DHT22;11740;51.168;4.112;2023-09-19T01:03:14;14.50;1.00
23143;DHT22;11740;51.168;4.112;2023-09-19T01:05:41;14.50;1.00
23143;DHT22;11740;51.168;4.112;2023-09-19T01:08:09;14.50;1.00
23143;DHT22;11740;51.168;4.112;2023-09-19T01:10:46;14.40;1.00
23143;DHT22;11740;51.168;4.112;2023-09-19T01:16:28;14.40;41.70
23143;DHT22;11740;51.168;4.112;2023-09-19T01:27:48;14.30;99.90
23143;DHT22;11740;51.168;4.112;2023-09-19T01:30:27;14.30;99.90
23143;DHT22;11740;51.168;4.112;2023-09-19T01:33:00;14.30;99.90
23143;DHT22;11740;51.168;4.112;2023-09-19T01:35:27;14.30;99.90
23143;DHT22;11740;51.168;4.112;2023-09-19T01:37:54;14.30;99.90
23143;DHT22;11740;51.168;4.112;2023-09-19T01:40:21;14.20;99.90
23143;DHT22;11740;51.168;4.112;2023-09-19T01:51:37;14.20;99.90
23143;DHT22;11740;51.168;4.112;2023-09-19T01:54:12;14.20;99.90
23143;DHT22;11740;51.168;4.112;2023-09-19T01:56:56;14.20;99.90
23143;DHT22;11740;51.168;4.112;2023-09-19T01:59:34;14.20;1.00
23143;DHT22;11740;51.168;4.112;2023-09-19T02:02:04;14.10;1.00
23143;DHT22;11740;51.168;4.112;2023-09-19T02:04:33;14.10;1.00
23143;DHT22;11740;51.168;4.112;2023-09-19T02:07:03;14.10;1.00
23143;DHT22;11740;51.168;4.112;2023-09-19T02:09:32;14.10;1.00
23143;DHT22;11740;51.168;4.112;2023-09-19T02:12:02;14.10;1.00
23143;DHT22;11740;51.168;4.112;2023-09-19T02:14:30;14.10;1.00
23143;DHT22;11740;51.168;4.112;2023-09-19T02:16:58;14.10;1.00
23143;DHT22;11740;51.168;4.112;2023-09-19T02:19:26;14.10;5.70
23143;DHT22;11740;51.168;4.112;2023-09-19T02:21:53;14.10;1.00
23143;DHT22;11740;51.168;4.112;2023-09-19T02:24:20;14.10;1.00
23143;DHT22;11740;51.168;4.112;2023-09-19T02:26:47;14.10;28.00
23143;DHT22;11740;51.168;4.112;2023-09-19T02:29:14;14.10;33.70
23143;DHT22;11740;51.168;4.112;2023-09-19T02:31:41;14.10;33.90
23143;DHT22;11740;51.168;4.112;2023-09-19T02:34:08;14.10;99.90
23143;DHT22;11740;51.168;4.112;2023-09-19T02:36:36;14.10;99.90
23143;DHT22;11740;51.168;4.112;2023-09-19T02:39:03;14.10;99.90
23143;DHT22;11740;51.168;4.112;2023-09-19T02:41:32;14.10;99.90
23143;DHT22;11740;51.168;4.112;2023-09-19T02:43:59;14.10;99.90
23143;DHT22;11740;51.168;4.112;2023-09-19T02:46:28;14.20;99.90
23143;DHT22;11740;51.168;4.112;2023-09-19T02:48:55;14.20;99.90
23143;DHT22;11740;51.168;4.112;2023-09-19T02:51:22;14.20;99.90
23143;DHT22;11740;51.168;4.112;2023-09-19T02:53:50;14.20;99.90
23143;DHT22;11740;51.168;4.112;2023-09-19T02:56:19;14.20;94.30
23143;DHT22;11740;51.168;4.112;2023-09-19T02:58:46;14.20;99.90
23143;DHT22;11740;51.168;4.112;2023-09-19T03:01:14;14.20;99.90
23143;DHT22;11740;51.168;4.112;2023-09-19T03:03:42;14.20;99.90
23143;DHT22;11740;51.168;4.112;2023-09-19T03:06:09;14.30;99.90
23143;DHT22;11740;51.168;4.112;2023-09-19T03:08:36;14.30;99.90
23143;DHT22;11740;51.168;4.112;2023-09-19T03:11:06;14.30;99.90
23143;DHT22;11740;51.168;4.112;2023-09-19T03:13:35;14.30;99.90
23143;DHT22;11740;51.168;4.112;2023-09-19T03:16:05;14.20;99.90
23143;DHT22;11740;51.168;4.112;2023-09-19T03:18:34;14.30;99.90
23143;DHT22;11740;51.168;4.112;2023-09-19T03:21:01;14.30;99.90
23143;DHT22;11740;51.168;4.112;2023-09-19T03:23:29;14.40;1.00
23143;DHT22;11740;51.168;4.112;2023-09-19T03:25:56;14.30;1.00
23143;DHT22;11740;51.168;4.112;2023-09-19T03:28:23;14.30;99.90
23143;DHT22;11740;51.168;4.112;2023-09-19T03:31:01;14.20;99.90
23143;DHT22;11740;51.168;4.112;2023-09-19T03:33:29;14.20;99.90
23143;DHT22;11740;51.168;4.112;2023-09-19T03:36:01;14.20;99.90
23143;DHT22;11740;51.168;4.112;2023-09-19T03:38:32;14.30;99.90
23143;DHT22;11740;51.168;4.112;2023-09-19T03:41:01;14.30;99.90
23143;DHT22;11740;51.168;4.112;2023-09-19T03:43:29;14.30;99.90
23143;DHT22;11740;51.168;4.112;2023-09-19T03:45:56;14.30;1.00
23143;DHT22;11740;51.168;4.112;2023-09-19T03:48:23;14.20;1.00
23143;DHT22;11740;51.168;4.112;2023-09-19T03:50:50;14.20;1.00
23143;DHT22;11740;51.168;4.112;2023-09-19T03:53:17;14.20;3.80
23143;DHT22;11740;51.168;4.112;2023-09-19T03:55:45;14.20;99.00
23143;DHT22;11740;51.168;4.112;2023-09-19T03:58:13;14.20;95.30
23143;DHT22;11740;51.168;4.112;2023-09-19T04:00:40;14.20;99.90
23143;DHT22;11740;51.168;4.112;2023-09-19T04:03:07;14.20;99.90
23143;DHT22;11740;51.168;4.112;2023-09-19T04:05:34;14.20;99.90
23143;DHT22;11740;51.168;4.112;2023-09-19T04:08:01;14.20;99.90
23143;DHT22;11740;51.168;4.112;2023-09-19T04:10:28;14.20;99.90
23143;DHT22;11740;51.168;4.112;2023-09-19T04:12:56;14.20;99.90
23143;DHT22;11740;51.168;4.112;2023-09-19T04:15:23;14.10;99.90
23143;DHT22;11740;51.168;4.112;2023-09-19T04:17:51;14.10;99.90
23143;DHT22;11740;51.168;4.112;2023-09-19T04:20:18;14.10;99.90
23143;DHT22;11740;51.168;4.112;2023-09-19T04:22:51;14.10;99.90
23143;DHT22;11740;51.168;4.112;2023-09-19T04:25:19;14.10;99.90
23143;DHT22;11740;51.168;4.112;2023-09-19T04:27:47;14.10;99.90
23143;DHT22;11740;51.168;4.112;2023-09-19T04:30:14;14.00;99.90
23143;DHT22;11740;51.168;4.112;2023-09-19T04:32:41;14.00;99.90
23143;DHT22;11740;51.168;4.112;2023-09-19T04:35:09;14.00;99.90
23143;DHT22;11740;51.168;4.112;2023-09-19T04:37:41;14.00;99.90
23143;DHT22;11740;51.168;4.112;2023-09-19T04:40:09;14.00;99.90
23143;DHT22;11740;51.168;4.112;2023-09-19T04:42:41;14.00;99.90
23143;DHT22;11740;51.168;4.112;2023-09-19T04:45:09;14.00;99.90
23143;DHT22;11740;51.168;4.112;2023-09-19T04:47:37;13.90;99.90
23143;DHT22;11740;51.168;4.112;2023-09-19T04:50:08;14.00;99.90
23143;DHT22;11740;51.168;4.112;2023-09-19T04:52:40;14.00;99.90
23143;DHT22;11740;51.168;4.112;2023-09-19T04:55:13;14.00;99.90
23143;DHT22;11740;51.168;4.112;2023-09-19T04:57:48;14.00;99.90
23143;DHT22;11740;51.168;4.112;2023-09-19T05:00:18;14.00;99.90
23143;DHT22;11740;51.168;4.112;2023-09-19T05:02:48;14.00;99.90
23143;DHT22;11740;51.168;4.112;2023-09-19T05:05:39;14.00;1.00
23143;DHT22;11740;51.168;4.112;2023-09-19T05:08:07;13.90;1.00
23143;DHT22;11740;51.168;4.112;2023-09-19T05:10:36;14.00;1.00
23143;DHT22;11740;51.168;4.112;2023-09-19T05:13:06;13.90;1.00
23143;DHT22;11740;51.168;4.112;2023-09-19T05:15:36;13.90;1.00
23143;DHT22;11740;51.168;4.112;2023-09-19T05:18:04;13.90;1.00
23143;DHT22;11740;51.168;4.112;2023-09-19T05:20:32;13.90;1.00
23143;DHT22;11740;51.168;4.112;2023-09-19T05:23:02;13.90;1.00
23143;DHT22;11740;51.168;4.112;2023-09-19T05:25:38;13.90;1.00
23143;DHT22;11740;51.168;4.112;2023-09-19T05:28:07;13.90;1.00
23143;DHT22;11740;51.168;4.112;2023-09-19T05:30:35;13.90;1.00
23143;DHT22;11740;51.168;4.112;2023-09-19T05:33:03;13.90;1.00
23143;DHT22;11740;51.168;4.112;2023-09-19T05:35:31;13.90;1.00
23143;DHT22;11740;51.168;4.112;2023-09-19T05:37:58;13.90;1.00
23143;DHT22;11740;51.168;4.112;2023-09-19T05:40:26;13.90;1.00
23143;DHT22;11740;51.168;4.112;2023-09-19T05:42:54;13.90;1.00
23143;DHT22;11740;51.168;4.112;2023-09-19T05:45:21;13.90;1.00
23143;DHT22;11740;51.168;4.112;2023-09-19T05:47:52;13.90;1.00
23143;DHT22;11740;51.168;4.112;2023-09-19T05:50:27;13.90;1.00
23143;DHT22;11740;51.168;4.112;2023-09-19T05:52:54;13.90;1.00
23143;DHT22;11740;51.168;4.112;2023-09-19T05:55:23;13.90;1.00
23143;DHT22;11740;51.168;4.112;2023-09-19T05:57:52;14.00;1.00
23143;DHT22;11740;51.168;4.112;2023-09-19T06:00:21;14.00;1.00
23143;DHT22;11740;51.168;4.112;2023-09-19T06:02:53;14.00;1.00
23143;DHT22;11740;51.168;4.112;2023-09-19T06:05:21;14.00;1.00
23143;DHT22;11740;51.168;4.112;2023-09-19T06:07:48;14.00;1.00
23143;DHT22;11740;51.168;4.112;2023-09-19T06:10:15;14.00;1.00
23143;DHT22;11740;51.168;4.112;2023-09-19T06:12:44;14.00;1.00
23143;DHT22;11740;51.168;4.112;2023-09-19T06:15:15;14.00;1.00
23143;DHT22;11740;51.168;4.112;2023-09-19T06:17:54;14.00;1.00
23143;DHT22;11740;51.168;4.112;2023-09-19T06:20:24;14.00;1.00
23143;DHT22;11740;51.168;4.112;2023-09-19T06:22:53;14.00;1.00
23143;DHT22;11740;51.168;4.112;2023-09-19T06:25:21;14.10;1.00
23143;DHT22;11740;51.168;4.112;2023-09-19T06:27:50;14.10;1.00
23143;DHT22;11740;51.168;4.112;2023-09-19T06:30:23;14.10;1.00
23143;DHT22;11740;51.168;4.112;2023-09-19T06:32:56;14.10;1.00
23143;DHT22;11740;51.168;4.112;2023-09-19T06:35:24;14.10;1.00
23143;DHT22;11740;51.168;4.112;2023-09-19T06:37:56;14.20;1.00
23143;DHT22;11740;51.168;4.112;2023-09-19T06:40:25;14.20;1.00
23143;DHT22;11740;51.168;4.112;2023-09-19T06:42:52;14.20;1.00
23143;DHT22;11740;51.168;4.112;2023-09-19T06:45:20;14.20;1.00
23143;DHT22;11740;51.168;4.112;2023-09-19T06:47:50;14.20;1.00
23143;DHT22;11740;51.168;4.112;2023-09-19T06:50:19;14.30;1.00
23143;DHT22;11740;51.168;4.112;2023-09-19T06:52:53;14.30;1.00
23143;DHT22;11740;51.168;4.112;2023-09-19T06:55:22;14.30;1.00
23143;DHT22;11740;51.168;4.112;2023-09-19T06:57:55;14.30;1.00
23143;DHT22;11740;51.168;4.112;2023-09-19T07:00:22;14.30;1.00
23143;DHT22;11740;51.168;4.112;2023-09-19T07:03:00;14.30;1.00
23143;DHT22;11740;51.168;4.112;2023-09-19T07:05:31;14.40;1.00
23143;DHT22;11740;51.168;4.112;2023-09-19T07:07:59;14.40;1.00
23143;DHT22;11740;51.168;4.112;2023-09-19T07:10:27;14.50;1.00
23143;DHT22;11740;51.168;4.112;2023-09-19T07:13:02;14.50;1.00
23143;DHT22;11740;51.168;4.112;2023-09-19T07:15:33;14.50;1.00
23143;DHT22;11740;51.168;4.112;2023-09-19T07:18:03;14.50;1.00
23143;DHT22;11740;51.168;4.112;2023-09-19T07:20:30;14.50;1.00
23143;DHT22;11740;51.168;4.112;2023-09-19T07:22:59;14.60;1.00
23143;DHT22;11740;51.168;4.112;2023-09-19T07:25:27;14.60;1.00
23143;DHT22;11740;51.168;4.112;2023-09-19T07:27:56;14.70;1.00
23143;DHT22;11740;51.168;4.112;2023-09-19T07:30:28;14.70;1.00
23143;DHT22;11740;51.168;4.112;2023-09-19T07:32:55;14.70;1.00
23143;DHT22;11740;51.168;4.112;2023-09-19T07:35:23;14.70;1.00
23143;DHT22;11740;51.168;4.112;2023-09-19T07:37:50;14.80;1.00
23143;DHT22;11740;51.168;4.112;2023-09-19T07:40:19;14.80;1.00
23143;DHT22;11740;51.168;4.112;2023-09-19T07:42:47;14.80;1.00
23143;DHT22;11740;51.168;4.112;2023-09-19T07:45:14;14.90;1.00
23143;DHT22;11740;51.168;4.112;2023-09-19T07:47:45;14.90;1.00
23143;DHT22;11740;51.168;4.112;2023-09-19T07:50:13;15.00;99.90
23143;DHT22;11740;51.168;4.112;2023-09-19T07:52:42;15.00;99.90
23143;DHT22;11740;51.168;4.112;2023-09-19T07:55:10;15.10;99.90
23143;DHT22;11740;51.168;4.112;2023-09-19T07:57:38;15.20;99.90
23143;DHT22;11740;51.168;4.112;2023-09-19T08:00:05;15.10;99.90
23143;DHT22;11740;51.168;4.112;2023-09-19T08:02:35;15.20;99.90
23143;DHT22;11740;51.168;4.112;2023-09-19T08:05:03;15.30;99.90
23143;DHT22;11740;51.168;4.112;2023-09-19T08:07:33;15.30;99.90
23143;DHT22;11740;51.168;4.112;2023-09-19T08:10:00;15.30;99.90
23143;DHT22;11740;51.168;4.112;2023-09-19T08:12:27;15.40;99.90
23143;DHT22;11740;51.168;4.112;2023-09-19T08:14:53;15.50;1.00
23143;DHT22;11740;51.168;4.112;2023-09-19T08:17:22;15.60;36.80
23143;DHT22;11740;51.168;4.112;2023-09-19T08:19:52;15.60;69.50
23143;DHT22;11740;51.168;4.112;2023-09-19T08:22:20;15.70;10.70
23143;DHT22;11740;51.168;4.112;2023-09-19T08:24:48;15.80;1.00
23143;DHT22;11740;51.168;4.112;2023-09-19T08:27:15;15.80;1.00
23143;DHT22;11740;51.168;4.112;2023-09-19T08:29:45;15.90;1.00
23143;DHT22;11740;51.168;4.112;2023-09-19T08:32:13;16.00;1.00
23143;DHT22;11740;51.168;4.112;2023-09-19T08:34:42;16.00;99.90
23143;DHT22;11740;51.168;4.112;2023-09-19T08:37:09;16.10;99.90
23143;DHT22;11740;51.168;4.112;2023-09-19T08:39:36;16.10;99.90
23143;DHT22;11740;51.168;4.112;2023-09-19T08:42:05;16.20;99.90
23143;DHT22;11740;51.168;4.112;2023-09-19T08:44:37;16.50;1.00
23143;DHT22;11740;51.168;4.112;2023-09-19T08:47:13;16.60;1.00
23143;DHT22;11740;51.168;4.112;2023-09-19T08:50:11;16.70;1.00
23143;DHT22;11740;51.168;4.112;2023-09-19T08:52:44;16.70;1.00
23143;DHT22;11740;51.168;4.112;2023-09-19T08:55:16;16.60;99.90
23143;DHT22;11740;51.168;4.112;2023-09-19T08:57:49;16.60;1.00
23143;DHT22;11740;51.168;4.112;2023-09-19T09:00:18;16.60;1.00
23143;DHT22;11740;51.168;4.112;2023-09-19T09:02:47;16.70;1.00
23143;DHT22;11740;51.168;4.112;2023-09-19T09:05:16;16.70;99.90
23143;DHT22;11740;51.168;4.112;2023-09-19T09:07:53;16.70;99.90
23143;DHT22;11740;51.168;4.112;2023-09-19T09:10:23;16.70;99.90
23143;DHT22;11740;51.168;4.112;2023-09-19T09:12:54;16.70;35.10
23143;DHT22;11740;51.168;4.112;2023-09-19T09:15:24;16.80;99.90
23143;DHT22;11740;51.168;4.112;2023-09-19T09:17:51;16.90;99.90
23143;DHT22;11740;51.168;4.112;2023-09-19T09:20:22;16.90;99.90
23143;DHT22;11740;51.168;4.112;2023-09-19T09:22:53;16.90;1.00
23143;DHT22;11740;51.168;4.112;2023-09-19T09:25:22;17.00;1.00
23143;DHT22;11740;51.168;4.112;2023-09-19T09:28:02;17.00;1.00
23143;DHT22;11740;51.168;4.112;2023-09-19T09:30:36;17.00;1.00
23143;DHT22;11740;51.168;4.112;2023-09-19T09:33:11;17.00;1.00
23143;DHT22;11740;51.168;4.112;2023-09-19T09:35:54;17.10;99.90
23143;DHT22;11740;51.168;4.112;2023-09-19T09:38:28;17.20;99.90
23143;DHT22;11740;51.168;4.112;2023-09-19T09:41:00;17.20;99.90
23143;DHT22;11740;51.168;4.112;2023-09-19T09:49:03;17.40;99.90
23143;DHT22;11740;51.168;4.112;2023-09-19T09:52:05;17.50;99.90
23143;DHT22;11740;51.168;4.112;2023-09-19T09:55:00;17.50;99.90
23143;DHT22;11740;51.168;4.112;2023-09-19T09:57:28;17.50;99.90
23143;DHT22;11740;51.168;4.112;2023-09-19T09:59:59;17.60;99.90
23143;DHT22;11740;51.168;4.112;2023-09-19T10:02:42;17.60;99.90
23143;DHT22;11740;51.168;4.112;2023-09-19T10:05:17;17.70;99.90
23143;DHT22;11740;51.168;4.112;2023-09-19T10:08:11;17.70;99.90
23143;DHT22;11740;51.168;4.112;2023-09-19T10:10:40;17.70;77.50
23143;DHT22;11740;51.168;4.112;2023-09-19T10:13:12;17.80;16.70
23143;DHT22;11740;51.168;4.112;2023-09-19T10:15:43;17.90;72.00
23143;DHT22;11740;51.168;4.112;2023-09-19T10:18:25;17.90;26.20
23143;DHT22;11740;51.168;4.112;2023-09-19T10:20:56;18.00;99.90
23143;DHT22;11740;51.168;4.112;2023-09-19T10:23:25;18.10;5.90
23143;DHT22;11740;51.168;4.112;2023-09-19T10:25:58;18.10;1.00
23143;DHT22;11740;51.168;4.112;2023-09-19T10:28:30;18.20;1.00
23143;DHT22;11740;51.168;4.112;2023-09-19T10:30:59;18.30;1.00
23143;DHT22;11740;51.168;4.112;2023-09-19T10:33:35;18.30;1.00
23143;DHT22;11740;51.168;4.112;2023-09-19T10:36:05;18.40;1.00
23143;DHT22;11740;51.168;4.112;2023-09-19T10:38:33;18.50;1.00
23143;DHT22;11740;51.168;4.112;2023-09-19T10:41:02;18.50;1.00
23143;DHT22;11740;51.168;4.112;2023-09-19T10:43:31;18.70;1.00
23143;DHT22;11740;51.168;4.112;2023-09-19T10:46:06;18.70;1.00
23143;DHT22;11740;51.168;4.112;2023-09-19T10:48:41;18.80;1.00
23143;DHT22;11740;51.168;4.112;2023-09-19T10:51:14;18.80;1.00
23143;DHT22;11740;51.168;4.112;2023-09-19T10:53:48;18.90;1.00
23143;DHT22;11740;51.168;4.112;2023-09-19T10:56:27;19.00;99.90
23143;DHT22;11740;51.168;4.112;2023-09-19T10:59:11;19.00;99.90
23143;DHT22;11740;51.168;4.112;2023-09-19T11:01:48;19.00;1.00
23143;DHT22;11740;51.168;4.112;2023-09-19T11:04:33;19.00;1.00
23143;DHT22;11740;51.168;4.112;2023-09-19T11:07:07;19.20;1.00
23143;DHT22;11740;51.168;4.112;2023-09-19T11:09:57;19.30;99.90
23143;DHT22;11740;51.168;4.112;2023-09-19T11:15:02;19.40;99.90
23143;DHT22;11740;51.168;4.112;2023-09-19T11:17:36;19.60;99.90
23143;DHT22;11740;51.168;4.112;2023-09-19T11:30:45;19.40;99.90
23143;DHT22;11740;51.168;4.112;2023-09-19T11:36:10;19.50;99.90
23143;DHT22;11740;51.168;4.112;2023-09-19T11:46:27;19.60;99.90
23143;DHT22;11740;51.168;4.112;2023-09-19T11:49:07;19.60;99.90
23143;DHT22;11740;51.168;4.112;2023-09-19T11:51:43;19.60;99.90
23143;DHT22;11740;51.168;4.112;2023-09-19T11:54:14;19.70;99.90
23143;DHT22;11740;51.168;4.112;2023-09-19T11:57:07;19.80;99.90
23143;DHT22;11740;51.168;4.112;2023-09-19T11:59:38;19.90;99.90
23143;DHT22;11740;51.168;4.112;2023-09-19T12:02:07;19.90;99.90
23143;DHT22;11740;51.168;4.112;2023-09-19T12:07:13;19.80;99.90
23143;DHT22;11740;51.168;4.112;2023-09-19T12:09:48;20.00;99.90
23143;DHT22;11740;51.168;4.112;2023-09-19T12:12:23;20.20;99.90
23143;DHT22;11740;51.168;4.112;2023-09-19T12:14:55;20.20;18.10
23143;DHT22;11740;51.168;4.112;2023-09-19T12:17:40;20.00;11.90
23143;DHT22;11740;51.168;4.112;2023-09-19T12:20:09;20.00;17.20
23143;DHT22;11740;51.168;4.112;2023-09-19T12:22:44;20.00;6.00
23143;DHT22;11740;51.168;4.112;2023-09-19T12:25:13;20.00;2.80
23143;DHT22;11740;51.168;4.112;2023-09-19T12:27:49;20.20;23.90
23143;DHT22;11740;51.168;4.112;2023-09-19T12:30:21;20.10;1.00
23143;DHT22;11740;51.168;4.112;2023-09-19T12:32:57;20.20;1.00
23143;DHT22;11740;51.168;4.112;2023-09-19T12:35:32;20.10;19.10
23143;DHT22;11740;51.168;4.112;2023-09-19T12:38:02;20.10;5.90
23143;DHT22;11740;51.168;4.112;2023-09-19T12:40:31;20.10;1.00
23143;DHT22;11740;51.168;4.112;2023-09-19T12:43:01;20.10;1.30
23143;DHT22;11740;51.168;4.112;2023-09-19T12:45:32;20.10;1.80
23143;DHT22;11740;51.168;4.112;2023-09-19T12:51:07;20.30;19.30
23143;DHT22;11740;51.168;4.112;2023-09-19T12:53:44;20.20;7.80
23143;DHT22;11740;51.168;4.112;2023-09-19T12:56:16;20.30;1.00
23143;DHT22;11740;51.168;4.112;2023-09-19T12:58:51;20.30;1.00
23143;DHT22;11740;51.168;4.112;2023-09-19T13:01:26;20.30;1.00
23143;DHT22;11740;51.168;4.112;2023-09-19T13:04:17;20.30;1.00
23143;DHT22;11740;51.168;4.112;2023-09-19T13:06:54;20.30;1.00
23143;DHT22;11740;51.168;4.112;2023-09-19T13:09:27;20.30;1.00
23143;DHT22;11740;51.168;4.112;2023-09-19T13:12:01;20.30;1.00
23143;DHT22;11740;51.168;4.112;2023-09-19T13:14:36;20.30;1.00
23143;DHT22;11740;51.168;4.112;2023-09-19T13:17:11;20.20;1.00
23143;DHT22;11740;51.168;4.112;2023-09-19T13:19:47;20.30;1.00
23143;DHT22;11740;51.168;4.112;2023-09-19T13:22:41;20.30;1.00
23143;DHT22;11740;51.168;4.112;2023-09-19T13:25:17;20.30;1.00
23143;DHT22;11740;51.168;4.112;2023-09-19T13:27:46;20.30;1.00
23143;DHT22;11740;51.168;4.112;2023-09-19T13:30:27;20.40;1.00
23143;DHT22;11740;51.168;4.112;2023-09-19T13:33:09;20.40;1.00
23143;DHT22;11740;51.168;4.112;2023-09-19T13:35:38;20.50;1.00
23143;DHT22;11740;51.168;4.112;2023-09-19T13:38:07;20.60;1.00
23143;DHT22;11740;51.168;4.112;2023-09-19T13:40:38;20.80;1.00
23143;DHT22;11740;51.168;4.112;2023-09-19T13:43:06;20.90;1.00
23143;DHT22;11740;51.168;4.112;2023-09-19T13:45:33;20.90;1.00
23143;DHT22;11740;51.168;4.112;2023-09-19T13:48:00;20.80;1.00
23143;DHT22;11740;51.168;4.112;2023-09-19T13:50:28;20.90;1.00
23143;DHT22;11740;51.168;4.112;2023-09-19T13:52:56;21.00;1.00
23143;DHT22;11740;51.168;4.112;2023-09-19T13:55:24;21.30;1.00
23143;DHT22;11740;51.168;4.112;2023-09-19T13:57:51;21.20;1.00
23143;DHT22;11740;51.168;4.112;2023-09-19T14:00:23;21.30;1.00
23143;DHT22;11740;51.168;4.112;2023-09-19T14:02:50;21.30;1.00
23143;DHT22;11740;51.168;4.112;2023-09-19T14:05:19;21.30;1.00
23143;DHT22;11740;51.168;4.112;2023-09-19T14:07:47;21.10;1.00
23143;DHT22;11740;51.168;4.112;2023-09-19T14:10:15;21.10;1.00
23143;DHT22;11740;51.168;4.112;2023-09-19T14:12:44;21.00;1.00
23143;DHT22;11740;51.168;4.112;2023-09-19T14:15:12;20.90;1.00
23143;DHT22;11740;51.168;4.112;2023-09-19T14:17:40;21.00;1.00
23143;DHT22;11740;51.168;4.112;2023-09-19T14:20:12;20.80;1.00
23143;DHT22;11740;51.168;4.112;2023-09-19T14:22:41;20.90;1.00
23143;DHT22;11740;51.168;4.112;2023-09-19T14:25:08;20.80;1.00
23143;DHT22;11740;51.168;4.112;2023-09-19T14:27:36;20.90;1.00
23143;DHT22;11740;51.168;4.112;2023-09-19T14:30:03;20.80;1.00
23143;DHT22;11740;51.168;4.112;2023-09-19T14:32:31;20.90;1.00
23143;DHT22;11740;51.168;4.112;2023-09-19T14:34:58;20.80;1.00
23143;DHT22;11740;51.168;4.112;2023-09-19T14:37:25;20.90;1.00
23143;DHT22;11740;51.168;4.112;2023-09-19T14:39:54;20.90;1.00
23143;DHT22;11740;51.168;4.112;2023-09-19T14:42:21;20.90;1.00
23143;DHT22;11740;51.168;4.112;2023-09-19T14:44:49;20.70;1.00
23143;DHT22;11740;51.168;4.112;2023-09-19T14:47:16;20.80;1.00
23143;DHT22;11740;51.168;4.112;2023-09-19T14:49:43;20.80;1.00
23143;DHT22;11740;51.168;4.112;2023-09-19T14:52:12;20.80;1.00
23143;DHT22;11740;51.168;4.112;2023-09-19T14:54:42;20.70;1.00
23143;DHT22;11740;51.168;4.112;2023-09-19T14:57:10;20.70;1.00
23143;DHT22;11740;51.168;4.112;2023-09-19T14:59:38;20.60;1.00
23143;DHT22;11740;51.168;4.112;2023-09-19T15:02:06;20.60;1.00
23143;DHT22;11740;51.168;4.112;2023-09-19T15:04:33;20.50;1.00
23143;DHT22;11740;51.168;4.112;2023-09-19T15:07:01;20.50;1.00
23143;DHT22;11740;51.168;4.112;2023-09-19T15:09:29;20.40;1.00
23143;DHT22;11740;51.168;4.112;2023-09-19T15:11:58;20.40;1.00
23143;DHT22;11740;51.168;4.112;2023-09-19T15:14:25;20.50;1.00
23143;DHT22;11740;51.168;4.112;2023-09-19T15:16:52;20.40;1.00
23143;DHT22;11740;51.168;4.112;2023-09-19T15:19:19;20.40;1.00
23143;DHT22;11740;51.168;4.112;2023-09-19T15:21:46;20.40;1.00
23143;DHT22;11740;51.168;4.112;2023-09-19T15:24:13;20.40;1.00
23143;DHT22;11740;51.168;4.112;2023-09-19T15:26:41;20.40;1.00
23143;DHT22;11740;51.168;4.112;2023-09-19T15:29:10;20.50;1.00
23143;DHT22;11740;51.168;4.112;2023-09-19T15:31:37;20.40;1.00
23143;DHT22;11740;51.168;4.112;2023-09-19T15:34:05;20.50;1.00
23143;DHT22;11740;51.168;4.112;2023-09-19T15:36:36;20.40;1.00
23143;DHT22;11740;51.168;4.112;2023-09-19T15:39:06;20.40;1.00
23143;DHT22;11740;51.168;4.112;2023-09-19T15:41:45;20.30;1.00
23143;DHT22;11740;51.168;4.112;2023-09-19T15:44:17;20.30;1.00
23143;DHT22;11740;51.168;4.112;2023-09-19T15:46:46;20.30;1.00
23143;DHT22;11740;51.168;4.112;2023-09-19T15:49:13;20.30;1.00
23143;DHT22;11740;51.168;4.112;2023-09-19T15:51:41;20.30;1.00
23143;DHT22;11740;51.168;4.112;2023-09-19T15:54:12;20.30;1.00
23143;DHT22;11740;51.168;4.112;2023-09-19T15:56:44;20.30;1.00
23143;DHT22;11740;51.168;4.112;2023-09-19T15:59:12;20.30;1.00
23143;DHT22;11740;51.168;4.112;2023-09-19T16:01:40;20.30;1.00
23143;DHT22;11740;51.168;4.112;2023-09-19T16:04:11;20.30;1.00
23143;DHT22;11740;51.168;4.112;2023-09-19T16:06:43;20.30;1.00
23143;DHT22;11740;51.168;4.112;2023-09-19T16:09:10;20.20;1.00
23143;DHT22;11740;51.168;4.112;2023-09-19T16:11:37;20.20;1.00
23143;DHT22;11740;51.168;4.112;2023-09-19T16:14:05;20.20;1.00
23143;DHT22;11740;51.168;4.112;2023-09-19T16:16:37;20.10;1.00
23143;DHT22;11740;51.168;4.112;2023-09-19T16:19:05;20.20;1.00
23143;DHT22;11740;51.168;4.112;2023-09-19T16:21:38;20.20;9.00
23143;DHT22;11740;51.168;4.112;2023-09-19T16:24:07;20.20;25.70
23143;DHT22;11740;51.168;4.112;2023-09-19T16:26:36;20.20;21.70
23143;DHT22;11740;51.168;4.112;2023-09-19T16:29:04;20.10;32.50
23143;DHT22;11740;51.168;4.112;2023-09-19T16:31:31;20.10;40.40
23143;DHT22;11740;51.168;4.112;2023-09-19T16:34:00;20.10;26.30
23143;DHT22;11740;51.168;4.112;2023-09-19T16:36:28;20.10;54.60
23143;DHT22;11740;51.168;4.112;2023-09-19T16:38:55;19.90;73.30
23143;DHT22;11740;51.168;4.112;2023-09-19T16:41:22;19.90;83.00
23143;DHT22;11740;51.168;4.112;2023-09-19T16:43:50;19.90;99.90
23143;DHT22;11740;51.168;4.112;2023-09-19T16:46:17;19.90;99.90
23143;DHT22;11740;51.168;4.112;2023-09-19T16:48:46;19.80;99.90
23143;DHT22;11740;51.168;4.112;2023-09-19T16:51:17;19.70;99.90
23143;DHT22;11740;51.168;4.112;2023-09-19T16:53:44;19.70;99.90
23143;DHT22;11740;51.168;4.112;2023-09-19T16:56:19;19.70;99.90